sensor_id;sensor_type;location;lat;lon;timestamp;P1;durP1;ratioP1;P2;durP2;ratioP2
80175;SDS011;75462;42.122;24.736;2024-03-02T00:01:41;0.40;;;0.40;;
80175;SDS011;75462;42.122;24.736;2024-03-02T00:04:07;0.40;;;0.40;;
80175;SDS011;75462;42.122;24.736;2024-03-02T00:06:33;0.40;;;0.40;;
80175;SDS011;75462;42.122;24.736;2024-03-02T00:08:59;0.40;;;0.40;;
80175;SDS011;75462;42.122;24.736;2024-03-02T00:11:25;0.40;;;0.40;;
80175;SDS011;75462;42.122;24.736;2024-03-02T00:13:52;0.40;;;0.40;;
80175;SDS011;75462;42.122;24.736;2024-03-02T00:16:19;0.40;;;0.40;;
80175;SDS011;75462;42.122;24.736;2024-03-02T00:18:45;0.40;;;0.40;;
80175;SDS011;75462;42.122;24.736;2024-03-02T00:21:11;0.40;;;0.40;;
80175;SDS011;75462;42.122;24.736;2024-03-02T00:23:39;0.40;;;0.40;;
80175;SDS011;75462;42.122;24.736;2024-03-02T00:26:05;0.40;;;0.40;;
80175;SDS011;75462;42.122;24.736;2024-03-02T00:28:32;0.30;;;0.30;;
80175;SDS011;75462;42.122;24.736;2024-03-02T00:31:11;0.40;;;0.40;;
80175;SDS011;75462;42.122;24.736;2024-03-02T00:33:45;0.40;;;0.40;;
80175;SDS011;75462;42.122;24.736;2024-03-02T00:36:12;0.40;;;0.40;;
80175;SDS011;75462;42.122;24.736;2024-03-02T00:38:44;0.40;;;0.40;;
80175;SDS011;75462;42.122;24.736;2024-03-02T00:41:15;0.30;;;0.30;;
80175;SDS011;75462;42.122;24.736;2024-03-02T00:43:47;0.40;;;0.40;;
80175;SDS011;75462;42.122;24.736;2024-03-02T00:46:22;0.40;;;0.40;;
80175;SDS011;75462;42.122;24.736;2024-03-02T00:51:14;0.40;;;0.40;;
80175;SDS011;75462;42.122;24.736;2024-03-02T00:53:40;0.40;;;0.40;;
80175;SDS011;75462;42.122;24.736;2024-03-02T00:56:05;0.40;;;0.40;;
80175;SDS011;75462;42.122;24.736;2024-03-02T00:58:35;0.40;;;0.40;;
80175;SDS011;75462;42.122;24.736;2024-03-02T01:01:01;0.40;;;0.40;;
80175;SDS011;75462;42.122;24.736;2024-03-02T01:03:27;0.30;;;0.30;;
80175;SDS011;75462;42.122;24.736;2024-03-02T01:05:53;0.40;;;0.40;;
80175;SDS011;75462;42.122;24.736;2024-03-02T01:08:18;0.40;;;0.40;;
80175;SDS011;75462;42.122;24.736;2024-03-02T01:10:44;0.40;;;0.40;;
80175;SDS011;75462;42.122;24.736;2024-03-02T01:13:10;0.40;;;0.40;;
80175;SDS011;75462;42.122;24.736;2024-03-02T01:15:35;0.40;;;0.40;;
80175;SDS011;75462;42.122;24.736;2024-03-02T01:18:01;0.30;;;0.30;;
80175;SDS011;75462;42.122;24.736;2024-03-02T01:20:27;0.40;;;0.40;;
80175;SDS011;75462;42.122;24.736;2024-03-02T01:22:52;0.40;;;0.40;;
80175;SDS011;75462;42.122;24.736;2024-03-02T01:25:18;0.40;;;0.40;;
80175;SDS011;75462;42.122;24.736;2024-03-02T01:27:44;0.40;;;0.40;;
80175;SDS011;75462;42.122;24.736;2024-03-02T01:30:09;0.40;;;0.40;;
80175;SDS011;75462;42.122;24.736;2024-03-02T01:32:37;0.40;;;0.40;;
80175;SDS011;75462;42.122;24.736;2024-03-02T01:35:03;0.40;;;0.40;;
80175;SDS011;75462;42.122;24.736;2024-03-02T01:37:30;0.40;;;0.40;;
80175;SDS011;75462;42.122;24.736;2024-03-02T01:39:55;0.40;;;0.40;;
80175;SDS011;75462;42.122;24.736;2024-03-02T01:42:21;0.40;;;0.40;;
80175;SDS011;75462;42.122;24.736;2024-03-02T01:44:47;0.40;;;0.40;;
80175;SDS011;75462;42.122;24.736;2024-03-02T01:47:13;0.40;;;0.40;;
80175;SDS011;75462;42.122;24.736;2024-03-02T01:49:38;0.40;;;0.40;;
80175;SDS011;75462;42.122;24.736;2024-03-02T01:52:06;0.40;;;0.40;;
80175;SDS011;75462;42.122;24.736;2024-03-02T01:54:32;0.40;;;0.40;;
80175;SDS011;75462;42.122;24.736;2024-03-02T01:56:58;0.40;;;0.40;;
80175;SDS011;75462;42.122;24.736;2024-03-02T01:59:24;0.40;;;0.40;;
80175;SDS011;75462;42.122;24.736;2024-03-02T02:01:50;0.40;;;0.40;;
80175;SDS011;75462;42.122;24.736;2024-03-02T02:04:16;0.40;;;0.40;;
80175;SDS011;75462;42.122;24.736;2024-03-02T02:06:43;0.40;;;0.40;;
80175;SDS011;75462;42.122;24.736;2024-03-02T02:09:09;0.40;;;0.40;;
80175;SDS011;75462;42.122;24.736;2024-03-02T02:11:35;0.40;;;0.40;;
80175;SDS011;75462;42.122;24.736;2024-03-02T02:14:00;0.40;;;0.40;;
80175;SDS011;75462;42.122;24.736;2024-03-02T02:16:26;0.40;;;0.40;;
80175;SDS011;75462;42.122;24.736;2024-03-02T02:18:52;0.40;;;0.40;;
80175;SDS011;75462;42.122;24.736;2024-03-02T02:21:18;0.40;;;0.40;;
80175;SDS011;75462;42.122;24.736;2024-03-02T02:23:47;0.40;;;0.40;;
80175;SDS011;75462;42.122;24.736;2024-03-02T02:26:13;0.40;;;0.40;;
80175;SDS011;75462;42.122;24.736;2024-03-02T02:28:39;0.40;;;0.40;;
80175;SDS011;75462;42.122;24.736;2024-03-02T02:31:11;0.40;;;0.40;;
80175;SDS011;75462;42.122;24.736;2024-03-02T02:33:39;0.40;;;0.40;;
80175;SDS011;75462;42.122;24.736;2024-03-02T02:36:07;0.40;;;0.40;;
80175;SDS011;75462;42.122;24.736;2024-03-02T02:38:36;0.32;;;0.32;;
80175;SDS011;75462;42.122;24.736;2024-03-02T02:41:05;0.45;;;0.45;;
80175;SDS011;75462;42.122;24.736;2024-03-02T02:43:31;0.40;;;0.40;;
80175;SDS011;75462;42.122;24.736;2024-03-02T02:45:56;0.40;;;0.40;;
80175;SDS011;75462;42.122;24.736;2024-03-02T02:48:22;0.40;;;0.40;;
80175;SDS011;75462;42.122;24.736;2024-03-02T02:50:47;0.40;;;0.40;;
80175;SDS011;75462;42.122;24.736;2024-03-02T02:53:13;0.40;;;0.40;;
80175;SDS011;75462;42.122;24.736;2024-03-02T02:55:39;0.40;;;0.40;;
80175;SDS011;75462;42.122;24.736;2024-03-02T02:58:11;0.40;;;0.40;;
80175;SDS011;75462;42.122;24.736;2024-03-02T03:00:37;0.40;;;0.40;;
80175;SDS011;75462;42.122;24.736;2024-03-02T03:03:05;0.40;;;0.40;;
80175;SDS011;75462;42.122;24.736;2024-03-02T03:05:31;0.40;;;0.40;;
80175;SDS011;75462;42.122;24.736;2024-03-02T03:07:57;0.40;;;0.40;;
80175;SDS011;75462;42.122;24.736;2024-03-02T03:10:22;0.40;;;0.40;;
80175;SDS011;75462;42.122;24.736;2024-03-02T03:12:50;0.40;;;0.40;;
80175;SDS011;75462;42.122;24.736;2024-03-02T03:15:17;0.40;;;0.40;;
80175;SDS011;75462;42.122;24.736;2024-03-02T03:17:43;0.40;;;0.40;;
80175;SDS011;75462;42.122;24.736;2024-03-02T03:20:10;0.40;;;0.40;;
80175;SDS011;75462;42.122;24.736;2024-03-02T03:22:37;0.40;;;0.40;;
80175;SDS011;75462;42.122;24.736;2024-03-02T03:25:03;0.30;;;0.30;;
80175;SDS011;75462;42.122;24.736;2024-03-02T03:27:29;0.40;;;0.40;;
80175;SDS011;75462;42.122;24.736;2024-03-02T03:29:55;0.40;;;0.40;;
80175;SDS011;75462;42.122;24.736;2024-03-02T03:32:21;0.40;;;0.40;;
80175;SDS011;75462;42.122;24.736;2024-03-02T03:34:47;0.40;;;0.40;;
80175;SDS011;75462;42.122;24.736;2024-03-02T03:37:13;0.40;;;0.40;;
80175;SDS011;75462;42.122;24.736;2024-03-02T03:39:39;0.40;;;0.40;;
80175;SDS011;75462;42.122;24.736;2024-03-02T03:42:05;0.50;;;0.50;;
80175;SDS011;75462;42.122;24.736;2024-03-02T03:44:31;0.40;;;0.40;;
80175;SDS011;75462;42.122;24.736;2024-03-02T03:46:57;0.40;;;0.40;;
80175;SDS011;75462;42.122;24.736;2024-03-02T03:49:22;0.30;;;0.30;;
80175;SDS011;75462;42.122;24.736;2024-03-02T03:51:48;0.40;;;0.40;;
80175;SDS011;75462;42.122;24.736;2024-03-02T03:54:14;0.40;;;0.40;;
80175;SDS011;75462;42.122;24.736;2024-03-02T03:56:40;0.40;;;0.40;;
80175;SDS011;75462;42.122;24.736;2024-03-02T03:59:05;0.40;;;0.40;;
80175;SDS011;75462;42.122;24.736;2024-03-02T04:01:31;0.40;;;0.40;;
80175;SDS011;75462;42.122;24.736;2024-03-02T04:03:57;0.40;;;0.40;;
80175;SDS011;75462;42.122;24.736;2024-03-02T04:06:23;0.40;;;0.40;;
80175;SDS011;75462;42.122;24.736;2024-03-02T04:08:48;0.40;;;0.40;;
80175;SDS011;75462;42.122;24.736;2024-03-02T04:11:14;0.40;;;0.40;;
80175;SDS011;75462;42.122;24.736;2024-03-02T04:13:40;0.40;;;0.40;;
80175;SDS011;75462;42.122;24.736;2024-03-02T04:16:06;0.40;;;0.40;;
80175;SDS011;75462;42.122;24.736;2024-03-02T04:18:31;0.40;;;0.40;;
80175;SDS011;75462;42.122;24.736;2024-03-02T04:20:57;0.40;;;0.40;;
80175;SDS011;75462;42.122;24.736;2024-03-02T04:23:26;0.30;;;0.30;;
80175;SDS011;75462;42.122;24.736;2024-03-02T04:25:52;0.40;;;0.40;;
80175;SDS011;75462;42.122;24.736;2024-03-02T04:28:18;0.40;;;0.40;;
80175;SDS011;75462;42.122;24.736;2024-03-02T04:30:43;0.40;;;0.40;;
80175;SDS011;75462;42.122;24.736;2024-03-02T04:33:09;0.40;;;0.40;;
80175;SDS011;75462;42.122;24.736;2024-03-02T04:35:38;0.40;;;0.40;;
80175;SDS011;75462;42.122;24.736;2024-03-02T04:38:04;0.40;;;0.40;;
80175;SDS011;75462;42.122;24.736;2024-03-02T04:40:30;0.35;;;0.35;;
80175;SDS011;75462;42.122;24.736;2024-03-02T04:42:55;0.40;;;0.40;;
80175;SDS011;75462;42.122;24.736;2024-03-02T04:45:23;0.40;;;0.40;;
80175;SDS011;75462;42.122;24.736;2024-03-02T04:47:49;0.40;;;0.40;;
80175;SDS011;75462;42.122;24.736;2024-03-02T04:50:14;0.40;;;0.40;;
80175;SDS011;75462;42.122;24.736;2024-03-02T04:52:40;0.40;;;0.40;;
80175;SDS011;75462;42.122;24.736;2024-03-02T04:55:06;0.40;;;0.40;;
80175;SDS011;75462;42.122;24.736;2024-03-02T04:57:50;0.40;;;0.40;;
80175;SDS011;75462;42.122;24.736;2024-03-02T05:00:19;0.40;;;0.40;;
80175;SDS011;75462;42.122;24.736;2024-03-02T05:02:45;0.40;;;0.40;;
80175;SDS011;75462;42.122;24.736;2024-03-02T05:05:11;0.40;;;0.40;;
80175;SDS011;75462;42.122;24.736;2024-03-02T05:07:37;0.50;;;0.50;;
80175;SDS011;75462;42.122;24.736;2024-03-02T05:10:02;0.40;;;0.40;;
80175;SDS011;75462;42.122;24.736;2024-03-02T05:12:28;0.40;;;0.40;;
80175;SDS011;75462;42.122;24.736;2024-03-02T05:15:14;0.40;;;0.40;;
80175;SDS011;75462;42.122;24.736;2024-03-02T05:17:40;0.40;;;0.40;;
80175;SDS011;75462;42.122;24.736;2024-03-02T05:20:09;0.40;;;0.40;;
80175;SDS011;75462;42.122;24.736;2024-03-02T05:22:35;0.40;;;0.40;;
80175;SDS011;75462;42.122;24.736;2024-03-02T05:25:02;0.40;;;0.40;;
80175;SDS011;75462;42.122;24.736;2024-03-02T05:27:29;0.40;;;0.40;;
80175;SDS011;75462;42.122;24.736;2024-03-02T05:29:55;0.40;;;0.40;;
80175;SDS011;75462;42.122;24.736;2024-03-02T05:32:20;0.40;;;0.40;;
80175;SDS011;75462;42.122;24.736;2024-03-02T05:34:46;0.40;;;0.40;;
80175;SDS011;75462;42.122;24.736;2024-03-02T05:37:12;0.40;;;0.40;;
80175;SDS011;75462;42.122;24.736;2024-03-02T05:39:38;0.40;;;0.40;;
80175;SDS011;75462;42.122;24.736;2024-03-02T05:42:03;0.40;;;0.40;;
80175;SDS011;75462;42.122;24.736;2024-03-02T05:44:29;0.40;;;0.40;;
80175;SDS011;75462;42.122;24.736;2024-03-02T05:46:55;0.40;;;0.40;;
80175;SDS011;75462;42.122;24.736;2024-03-02T05:49:21;0.40;;;0.40;;
80175;SDS011;75462;42.122;24.736;2024-03-02T05:51:47;0.40;;;0.40;;
80175;SDS011;75462;42.122;24.736;2024-03-02T05:54:12;0.40;;;0.40;;
80175;SDS011;75462;42.122;24.736;2024-03-02T05:56:38;0.40;;;0.40;;
80175;SDS011;75462;42.122;24.736;2024-03-02T05:59:04;0.40;;;0.40;;
80175;SDS011;75462;42.122;24.736;2024-03-02T06:01:38;0.40;;;0.40;;
80175;SDS011;75462;42.122;24.736;2024-03-02T06:04:04;0.40;;;0.40;;
80175;SDS011;75462;42.122;24.736;2024-03-02T06:06:29;0.40;;;0.40;;
80175;SDS011;75462;42.122;24.736;2024-03-02T06:08:57;0.40;;;0.40;;
80175;SDS011;75462;42.122;24.736;2024-03-02T06:11:23;0.40;;;0.40;;
80175;SDS011;75462;42.122;24.736;2024-03-02T06:13:49;0.40;;;0.40;;
80175;SDS011;75462;42.122;24.736;2024-03-02T06:16:15;0.40;;;0.40;;
80175;SDS011;75462;42.122;24.736;2024-03-02T06:18:41;0.40;;;0.40;;
80175;SDS011;75462;42.122;24.736;2024-03-02T06:21:06;0.40;;;0.40;;
80175;SDS011;75462;42.122;24.736;2024-03-02T06:23:33;0.40;;;0.40;;
80175;SDS011;75462;42.122;24.736;2024-03-02T06:25:59;0.40;;;0.40;;
80175;SDS011;75462;42.122;24.736;2024-03-02T06:28:25;0.40;;;0.40;;
80175;SDS011;75462;42.122;24.736;2024-03-02T06:30:51;0.40;;;0.40;;
80175;SDS011;75462;42.122;24.736;2024-03-02T06:33:17;0.40;;;0.40;;
80175;SDS011;75462;42.122;24.736;2024-03-02T06:35:43;0.40;;;0.40;;
80175;SDS011;75462;42.122;24.736;2024-03-02T06:38:08;0.40;;;0.40;;
80175;SDS011;75462;42.122;24.736;2024-03-02T06:40:34;0.40;;;0.40;;
80175;SDS011;75462;42.122;24.736;2024-03-02T06:43:00;0.40;;;0.40;;
80175;SDS011;75462;42.122;24.736;2024-03-02T06:45:26;0.40;;;0.40;;
80175;SDS011;75462;42.122;24.736;2024-03-02T06:47:51;0.40;;;0.40;;
80175;SDS011;75462;42.122;24.736;2024-03-02T06:50:17;0.40;;;0.40;;
80175;SDS011;75462;42.122;24.736;2024-03-02T06:52:43;0.30;;;0.30;;
80175;SDS011;75462;42.122;24.736;2024-03-02T06:55:09;0.40;;;0.40;;
80175;SDS011;75462;42.122;24.736;2024-03-02T06:57:34;0.40;;;0.40;;
80175;SDS011;75462;42.122;24.736;2024-03-02T07:00:00;0.40;;;0.40;;
80175;SDS011;75462;42.122;24.736;2024-03-02T07:02:26;0.40;;;0.40;;
80175;SDS011;75462;42.122;24.736;2024-03-02T07:04:55;0.40;;;0.40;;
80175;SDS011;75462;42.122;24.736;2024-03-02T07:07:21;0.40;;;0.40;;
80175;SDS011;75462;42.122;24.736;2024-03-02T07:09:47;0.40;;;0.40;;
80175;SDS011;75462;42.122;24.736;2024-03-02T07:12:13;0.32;;;0.32;;
80175;SDS011;75462;42.122;24.736;2024-03-02T07:14:39;0.40;;;0.40;;
80175;SDS011;75462;42.122;24.736;2024-03-02T07:17:23;0.40;;;0.40;;
80175;SDS011;75462;42.122;24.736;2024-03-02T07:19:48;0.40;;;0.40;;
80175;SDS011;75462;42.122;24.736;2024-03-02T07:22:14;0.30;;;0.30;;
80175;SDS011;75462;42.122;24.736;2024-03-02T07:24:43;0.40;;;0.40;;
80175;SDS011;75462;42.122;24.736;2024-03-02T07:27:11;0.40;;;0.40;;
80175;SDS011;75462;42.122;24.736;2024-03-02T07:29:37;0.40;;;0.40;;
80175;SDS011;75462;42.122;24.736;2024-03-02T07:32:04;0.40;;;0.40;;
80175;SDS011;75462;42.122;24.736;2024-03-02T07:34:30;0.50;;;0.50;;
80175;SDS011;75462;42.122;24.736;2024-03-02T07:36:55;0.40;;;0.40;;
80175;SDS011;75462;42.122;24.736;2024-03-02T07:39:21;0.40;;;0.40;;
80175;SDS011;75462;42.122;24.736;2024-03-02T07:41:47;0.40;;;0.40;;
80175;SDS011;75462;42.122;24.736;2024-03-02T07:44:13;0.40;;;0.40;;
80175;SDS011;75462;42.122;24.736;2024-03-02T07:46:43;0.40;;;0.40;;
80175;SDS011;75462;42.122;24.736;2024-03-02T07:49:09;0.40;;;0.40;;
80175;SDS011;75462;42.122;24.736;2024-03-02T07:51:34;0.32;;;0.32;;
80175;SDS011;75462;42.122;24.736;2024-03-02T07:54:01;0.40;;;0.40;;
80175;SDS011;75462;42.122;24.736;2024-03-02T07:56:27;0.40;;;0.40;;
80175;SDS011;75462;42.122;24.736;2024-03-02T07:58:53;0.30;;;0.30;;
80175;SDS011;75462;42.122;24.736;2024-03-02T08:01:19;0.30;;;0.30;;
80175;SDS011;75462;42.122;24.736;2024-03-02T08:03:45;0.40;;;0.40;;
80175;SDS011;75462;42.122;24.736;2024-03-02T08:06:16;0.30;;;0.30;;
80175;SDS011;75462;42.122;24.736;2024-03-02T08:08:42;0.40;;;0.40;;
80175;SDS011;75462;42.122;24.736;2024-03-02T08:11:08;0.40;;;0.40;;
80175;SDS011;75462;42.122;24.736;2024-03-02T08:13:34;0.40;;;0.40;;
80175;SDS011;75462;42.122;24.736;2024-03-02T08:16:00;0.40;;;0.40;;
80175;SDS011;75462;42.122;24.736;2024-03-02T08:18:28;0.40;;;0.40;;
80175;SDS011;75462;42.122;24.736;2024-03-02T08:20:54;0.40;;;0.40;;
80175;SDS011;75462;42.122;24.736;2024-03-02T08:23:19;0.40;;;0.40;;
80175;SDS011;75462;42.122;24.736;2024-03-02T08:25:45;0.40;;;0.40;;
80175;SDS011;75462;42.122;24.736;2024-03-02T08:28:12;0.30;;;0.30;;
80175;SDS011;75462;42.122;24.736;2024-03-02T08:30:37;0.30;;;0.30;;
80175;SDS011;75462;42.122;24.736;2024-03-02T08:33:03;0.30;;;0.30;;
80175;SDS011;75462;42.122;24.736;2024-03-02T08:35:29;0.40;;;0.40;;
80175;SDS011;75462;42.122;24.736;2024-03-02T08:37:56;0.30;;;0.30;;
80175;SDS011;75462;42.122;24.736;2024-03-02T08:40:22;0.40;;;0.40;;
80175;SDS011;75462;42.122;24.736;2024-03-02T08:42:49;0.30;;;0.30;;
80175;SDS011;75462;42.122;24.736;2024-03-02T08:45:14;0.40;;;0.40;;
80175;SDS011;75462;42.122;24.736;2024-03-02T08:47:41;0.30;;;0.30;;
80175;SDS011;75462;42.122;24.736;2024-03-02T08:50:07;0.38;;;0.38;;
80175;SDS011;75462;42.122;24.736;2024-03-02T08:52:33;0.30;;;0.30;;
80175;SDS011;75462;42.122;24.736;2024-03-02T08:54:59;0.40;;;0.40;;
80175;SDS011;75462;42.122;24.736;2024-03-02T08:57:25;0.40;;;0.40;;
80175;SDS011;75462;42.122;24.736;2024-03-02T08:59:50;0.30;;;0.30;;
80175;SDS011;75462;42.122;24.736;2024-03-02T09:02:16;0.38;;;0.38;;
80175;SDS011;75462;42.122;24.736;2024-03-02T09:04:42;0.40;;;0.40;;
80175;SDS011;75462;42.122;24.736;2024-03-02T09:07:08;0.40;;;0.40;;
80175;SDS011;75462;42.122;24.736;2024-03-02T09:09:33;0.40;;;0.40;;
80175;SDS011;75462;42.122;24.736;2024-03-02T09:12:00;0.40;;;0.40;;
80175;SDS011;75462;42.122;24.736;2024-03-02T09:14:25;0.40;;;0.40;;
80175;SDS011;75462;42.122;24.736;2024-03-02T09:16:51;0.40;;;0.40;;
80175;SDS011;75462;42.122;24.736;2024-03-02T09:19:17;0.30;;;0.30;;
80175;SDS011;75462;42.122;24.736;2024-03-02T09:21:43;0.30;;;0.30;;
80175;SDS011;75462;42.122;24.736;2024-03-02T09:24:09;0.30;;;0.30;;
80175;SDS011;75462;42.122;24.736;2024-03-02T09:26:35;0.32;;;0.32;;
80175;SDS011;75462;42.122;24.736;2024-03-02T09:29:01;0.30;;;0.30;;
80175;SDS011;75462;42.122;24.736;2024-03-02T09:31:26;0.40;;;0.40;;
80175;SDS011;75462;42.122;24.736;2024-03-02T09:33:52;0.30;;;0.30;;
80175;SDS011;75462;42.122;24.736;2024-03-02T09:36:18;0.40;;;0.40;;
80175;SDS011;75462;42.122;24.736;2024-03-02T09:38:47;0.40;;;0.40;;
80175;SDS011;75462;42.122;24.736;2024-03-02T09:41:14;0.30;;;0.30;;
80175;SDS011;75462;42.122;24.736;2024-03-02T09:43:40;0.40;;;0.40;;
80175;SDS011;75462;42.122;24.736;2024-03-02T09:46:07;0.40;;;0.40;;
80175;SDS011;75462;42.122;24.736;2024-03-02T09:48:34;0.40;;;0.40;;
80175;SDS011;75462;42.122;24.736;2024-03-02T09:51:00;0.30;;;0.30;;
80175;SDS011;75462;42.122;24.736;2024-03-02T09:53:31;0.30;;;0.30;;
80175;SDS011;75462;42.122;24.736;2024-03-02T09:56:01;0.30;;;0.30;;
80175;SDS011;75462;42.122;24.736;2024-03-02T09:58:27;0.40;;;0.40;;
80175;SDS011;75462;42.122;24.736;2024-03-02T10:00:53;0.40;;;0.40;;
80175;SDS011;75462;42.122;24.736;2024-03-02T10:03:19;0.40;;;0.40;;
80175;SDS011;75462;42.122;24.736;2024-03-02T10:05:46;0.40;;;0.40;;
80175;SDS011;75462;42.122;24.736;2024-03-02T10:08:11;0.38;;;0.38;;
80175;SDS011;75462;42.122;24.736;2024-03-02T10:10:37;0.40;;;0.40;;
80175;SDS011;75462;42.122;24.736;2024-03-02T10:13:11;0.30;;;0.30;;
80175;SDS011;75462;42.122;24.736;2024-03-02T10:15:39;0.30;;;0.30;;
80175;SDS011;75462;42.122;24.736;2024-03-02T10:18:09;0.30;;;0.30;;
80175;SDS011;75462;42.122;24.736;2024-03-02T10:20:37;0.30;;;0.30;;
80175;SDS011;75462;42.122;24.736;2024-03-02T10:25:42;0.30;;;0.30;;
80175;SDS011;75462;42.122;24.736;2024-03-02T10:28:10;0.30;;;0.30;;
80175;SDS011;75462;42.122;24.736;2024-03-02T10:30:35;0.40;;;0.40;;
80175;SDS011;75462;42.122;24.736;2024-03-02T10:33:02;0.30;;;0.30;;
80175;SDS011;75462;42.122;24.736;2024-03-02T10:35:28;0.30;;;0.30;;
80175;SDS011;75462;42.122;24.736;2024-03-02T10:37:56;0.30;;;0.30;;
80175;SDS011;75462;42.122;24.736;2024-03-02T10:40:24;0.30;;;0.30;;
80175;SDS011;75462;42.122;24.736;2024-03-02T10:42:51;0.30;;;0.30;;
80175;SDS011;75462;42.122;24.736;2024-03-02T10:45:17;0.30;;;0.30;;
80175;SDS011;75462;42.122;24.736;2024-03-02T10:47:45;0.30;;;0.30;;
80175;SDS011;75462;42.122;24.736;2024-03-02T10:50:12;0.30;;;0.30;;
80175;SDS011;75462;42.122;24.736;2024-03-02T10:52:38;0.20;;;0.20;;
80175;SDS011;75462;42.122;24.736;2024-03-02T10:55:05;0.30;;;0.30;;
80175;SDS011;75462;42.122;24.736;2024-03-02T11:02:40;0.30;;;0.30;;
80175;SDS011;75462;42.122;24.736;2024-03-02T11:05:12;0.30;;;0.30;;
80175;SDS011;75462;42.122;24.736;2024-03-02T11:07:43;0.30;;;0.30;;
80175;SDS011;75462;42.122;24.736;2024-03-02T11:10:10;0.30;;;0.30;;
80175;SDS011;75462;42.122;24.736;2024-03-02T11:12:38;0.30;;;0.30;;
80175;SDS011;75462;42.122;24.736;2024-03-02T11:15:09;0.30;;;0.30;;
80175;SDS011;75462;42.122;24.736;2024-03-02T11:17:39;0.30;;;0.30;;
80175;SDS011;75462;42.122;24.736;2024-03-02T11:20:06;0.30;;;0.30;;
80175;SDS011;75462;42.122;24.736;2024-03-02T11:22:34;0.30;;;0.30;;
80175;SDS011;75462;42.122;24.736;2024-03-02T11:25:01;0.20;;;0.20;;
80175;SDS011;75462;42.122;24.736;2024-03-02T11:32:59;0.30;;;0.30;;
80175;SDS011;75462;42.122;24.736;2024-03-02T11:35:25;0.28;;;0.28;;
80175;SDS011;75462;42.122;24.736;2024-03-02T11:37:55;0.30;;;0.30;;
80175;SDS011;75462;42.122;24.736;2024-03-02T11:40:30;0.20;;;0.20;;
80175;SDS011;75462;42.122;24.736;2024-03-02T11:43:02;0.30;;;0.30;;
80175;SDS011;75462;42.122;24.736;2024-03-02T11:45:30;0.22;;;0.22;;
80175;SDS011;75462;42.122;24.736;2024-03-02T11:47:58;0.30;;;0.30;;
80175;SDS011;75462;42.122;24.736;2024-03-02T11:50:28;0.30;;;0.30;;
80175;SDS011;75462;42.122;24.736;2024-03-02T11:52:55;0.20;;;0.20;;
80175;SDS011;75462;42.122;24.736;2024-03-02T11:55:21;0.20;;;0.20;;
80175;SDS011;75462;42.122;24.736;2024-03-02T11:57:48;0.20;;;0.20;;
80175;SDS011;75462;42.122;24.736;2024-03-02T12:00:18;0.30;;;0.30;;
80175;SDS011;75462;42.122;24.736;2024-03-02T12:02:45;0.20;;;0.20;;
80175;SDS011;75462;42.122;24.736;2024-03-02T12:05:14;0.30;;;0.30;;
80175;SDS011;75462;42.122;24.736;2024-03-02T12:07:41;0.30;;;0.30;;
80175;SDS011;75462;42.122;24.736;2024-03-02T12:10:08;0.20;;;0.20;;
80175;SDS011;75462;42.122;24.736;2024-03-02T12:12:34;0.28;;;0.28;;
80175;SDS011;75462;42.122;24.736;2024-03-02T12:15:00;0.30;;;0.30;;
80175;SDS011;75462;42.122;24.736;2024-03-02T12:17:26;0.30;;;0.30;;
80175;SDS011;75462;42.122;24.736;2024-03-02T12:19:51;0.20;;;0.20;;
80175;SDS011;75462;42.122;24.736;2024-03-02T12:22:18;0.20;;;0.20;;
80175;SDS011;75462;42.122;24.736;2024-03-02T12:24:44;0.20;;;0.20;;
80175;SDS011;75462;42.122;24.736;2024-03-02T12:27:10;0.20;;;0.20;;
80175;SDS011;75462;42.122;24.736;2024-03-02T12:29:37;0.30;;;0.30;;
80175;SDS011;75462;42.122;24.736;2024-03-02T12:32:04;0.20;;;0.20;;
80175;SDS011;75462;42.122;24.736;2024-03-02T12:34:31;0.30;;;0.30;;
80175;SDS011;75462;42.122;24.736;2024-03-02T12:36:57;0.20;;;0.20;;
80175;SDS011;75462;42.122;24.736;2024-03-02T12:39:23;0.20;;;0.20;;
80175;SDS011;75462;42.122;24.736;2024-03-02T12:41:49;0.20;;;0.20;;
80175;SDS011;75462;42.122;24.736;2024-03-02T12:44:16;0.20;;;0.20;;
80175;SDS011;75462;42.122;24.736;2024-03-02T12:46:43;0.20;;;0.20;;
80175;SDS011;75462;42.122;24.736;2024-03-02T12:49:10;0.20;;;0.20;;
80175;SDS011;75462;42.122;24.736;2024-03-02T12:51:43;0.20;;;0.20;;
80175;SDS011;75462;42.122;24.736;2024-03-02T12:54:13;0.20;;;0.20;;
80175;SDS011;75462;42.122;24.736;2024-03-02T12:56:40;0.20;;;0.20;;
80175;SDS011;75462;42.122;24.736;2024-03-02T12:59:21;0.20;;;0.20;;
80175;SDS011;75462;42.122;24.736;2024-03-02T13:01:53;0.20;;;0.20;;
80175;SDS011;75462;42.122;24.736;2024-03-02T13:04:25;0.20;;;0.20;;
80175;SDS011;75462;42.122;24.736;2024-03-02T13:06:54;0.20;;;0.20;;
80175;SDS011;75462;42.122;24.736;2024-03-02T13:09:22;0.20;;;0.20;;
80175;SDS011;75462;42.122;24.736;2024-03-02T13:11:49;0.20;;;0.20;;
80175;SDS011;75462;42.122;24.736;2024-03-02T13:14:14;0.30;;;0.30;;
80175;SDS011;75462;42.122;24.736;2024-03-02T13:16:40;0.13;;;0.13;;
80175;SDS011;75462;42.122;24.736;2024-03-02T13:19:07;0.20;;;0.20;;
80175;SDS011;75462;42.122;24.736;2024-03-02T13:21:37;0.22;;;0.22;;
80175;SDS011;75462;42.122;24.736;2024-03-02T13:24:03;0.20;;;0.20;;
80175;SDS011;75462;42.122;24.736;2024-03-02T13:26:29;0.20;;;0.20;;
80175;SDS011;75462;42.122;24.736;2024-03-02T13:28:55;0.20;;;0.20;;
80175;SDS011;75462;42.122;24.736;2024-03-02T13:31:21;0.20;;;0.20;;
80175;SDS011;75462;42.122;24.736;2024-03-02T13:33:47;0.20;;;0.20;;
80175;SDS011;75462;42.122;24.736;2024-03-02T13:36:13;0.20;;;0.20;;
80175;SDS011;75462;42.122;24.736;2024-03-02T13:38:38;0.20;;;0.20;;
80175;SDS011;75462;42.122;24.736;2024-03-02T13:41:04;0.30;;;0.30;;
80175;SDS011;75462;42.122;24.736;2024-03-02T13:43:30;0.22;;;0.22;;
80175;SDS011;75462;42.122;24.736;2024-03-02T13:45:57;0.20;;;0.20;;
80175;SDS011;75462;42.122;24.736;2024-03-02T13:48:24;0.28;;;0.28;;
80175;SDS011;75462;42.122;24.736;2024-03-02T13:50:52;0.20;;;0.20;;
80175;SDS011;75462;42.122;24.736;2024-03-02T13:53:18;0.20;;;0.20;;
80175;SDS011;75462;42.122;24.736;2024-03-02T13:55:44;0.20;;;0.20;;
80175;SDS011;75462;42.122;24.736;2024-03-02T13:58:10;0.20;;;0.20;;
80175;SDS011;75462;42.122;24.736;2024-03-02T14:00:36;0.20;;;0.20;;
80175;SDS011;75462;42.122;24.736;2024-03-02T14:03:04;0.20;;;0.20;;
80175;SDS011;75462;42.122;24.736;2024-03-02T14:05:33;0.20;;;0.20;;
80175;SDS011;75462;42.122;24.736;2024-03-02T14:07:59;0.20;;;0.20;;
80175;SDS011;75462;42.122;24.736;2024-03-02T14:10:25;0.20;;;0.20;;
80175;SDS011;75462;42.122;24.736;2024-03-02T14:12:52;0.20;;;0.20;;
80175;SDS011;75462;42.122;24.736;2024-03-02T14:15:18;0.20;;;0.20;;
80175;SDS011;75462;42.122;24.736;2024-03-02T14:20:11;0.28;;;0.28;;
80175;SDS011;75462;42.122;24.736;2024-03-02T14:22:38;0.20;;;0.20;;
80175;SDS011;75462;42.122;24.736;2024-03-02T14:25:04;0.20;;;0.20;;
80175;SDS011;75462;42.122;24.736;2024-03-02T14:27:30;0.30;;;0.30;;
80175;SDS011;75462;42.122;24.736;2024-03-02T14:29:56;0.20;;;0.20;;
80175;SDS011;75462;42.122;24.736;2024-03-02T14:32:21;0.20;;;0.20;;
80175;SDS011;75462;42.122;24.736;2024-03-02T14:34:47;0.20;;;0.20;;
80175;SDS011;75462;42.122;24.736;2024-03-02T14:37:14;0.20;;;0.20;;
80175;SDS011;75462;42.122;24.736;2024-03-02T14:39:40;0.20;;;0.20;;
80175;SDS011;75462;42.122;24.736;2024-03-02T14:42:06;0.20;;;0.20;;
80175;SDS011;75462;42.122;24.736;2024-03-02T14:44:32;0.20;;;0.20;;
80175;SDS011;75462;42.122;24.736;2024-03-02T14:46:59;0.20;;;0.20;;
80175;SDS011;75462;42.122;24.736;2024-03-02T14:49:29;0.30;;;0.30;;